createdAt,value
2022-10-22T00:00:08.738Z,12.02
2022-10-22T00:02:36.023Z,12.08
2022-10-22T00:05:04.232Z,12.10
2022-10-22T00:07:31.661Z,12.13
2022-10-22T00:09:59.137Z,12.13
2022-10-22T00:12:26.873Z,12.12
2022-10-22T00:14:54.024Z,12.10
2022-10-22T00:17:21.520Z,12.06
2022-10-22T00:19:48.849Z,12.08
2022-10-22T00:22:16.288Z,12.04
2022-10-22T00:24:44.043Z,12.02
2022-10-22T00:27:12.389Z,12.02
2022-10-22T00:29:39.950Z,12.02
2022-10-22T00:32:07.786Z,12.02
2022-10-22T00:34:35.087Z,12.02
2022-10-22T00:37:02.238Z,12.02
2022-10-22T00:39:29.819Z,12.03
2022-10-22T00:41:58.231Z,12.03
2022-10-22T00:45:03.081Z,12.05
2022-10-22T00:47:39.686Z,12.03
2022-10-22T00:50:12.128Z,12.02
2022-10-22T00:52:40.217Z,12.01
2022-10-22T00:55:08.002Z,12.02
2022-10-22T00:57:35.830Z,12.01
2022-10-22T01:00:04.767Z,12.00
2022-10-22T01:02:39.796Z,11.96
2022-10-22T01:05:07.634Z,11.95
2022-10-22T01:07:41.129Z,11.94
2022-10-22T01:10:12.639Z,11.94
2022-10-22T01:12:58.325Z,11.97
2022-10-22T01:15:34.033Z,11.95
2022-10-22T01:18:10.624Z,11.93
2022-10-22T01:20:49.905Z,11.94
2022-10-22T01:23:50.779Z,11.92
2022-10-22T01:26:32.507Z,11.93
2022-10-22T01:29:07.616Z,11.94
2022-10-22T01:31:45.646Z,11.94
2022-10-22T01:34:15.267Z,11.95
2022-10-22T01:36:42.954Z,11.97
2022-10-22T01:39:11.048Z,11.93
2022-10-22T01:41:39.400Z,11.94
2022-10-22T01:44:06.516Z,11.96
2022-10-22T01:46:33.946Z,11.96
2022-10-22T01:49:28.054Z,11.97
2022-10-22T01:52:34.225Z,11.96
2022-10-22T01:55:28.340Z,11.97
2022-10-22T01:58:03.630Z,11.97
2022-10-22T02:00:30.856Z,11.95
2022-10-22T02:03:04.930Z,11.96
2022-10-22T02:05:41.297Z,11.92
2022-10-22T02:08:10.501Z,11.92
2022-10-22T02:10:39.653Z,11.93
2022-10-22T02:13:13.453Z,11.92
2022-10-22T02:15:42.052Z,11.92
2022-10-22T02:18:09.808Z,11.94
2022-10-22T02:20:38.921Z,11.94
2022-10-22T02:23:06.206Z,11.93
2022-10-22T02:25:39.758Z,11.91
2022-10-22T02:28:16.982Z,11.91
2022-10-22T02:30:48.194Z,11.94
2022-10-22T02:33:22.107Z,11.93
2022-10-22T02:35:49.937Z,11.95
2022-10-22T02:38:17.496Z,11.98
2022-10-22T02:40:44.924Z,11.99
2022-10-22T02:43:12.034Z,12.02
2022-10-22T02:45:39.159Z,12.05
2022-10-22T02:48:06.484Z,12.06
2022-10-22T02:50:33.660Z,12.09
2022-10-22T02:53:00.781Z,12.11
2022-10-22T02:55:28.037Z,12.15
2022-10-22T02:57:55.128Z,12.17
2022-10-22T03:00:22.661Z,12.22
2022-10-22T03:02:49.889Z,12.25
2022-10-22T03:05:17.081Z,12.25
2022-10-22T03:07:44.241Z,12.28
2022-10-22T03:10:11.398Z,12.32
2022-10-22T03:12:38.557Z,12.32
2022-10-22T03:15:06.099Z,12.35
2022-10-22T03:17:33.195Z,12.37
2022-10-22T03:20:00.295Z,12.40
2022-10-22T03:22:29.291Z,12.43
2022-10-22T03:24:59.387Z,12.44
2022-10-22T03:27:28.400Z,12.46
2022-10-22T03:29:57.021Z,12.48
2022-10-22T03:32:24.253Z,12.51
2022-10-22T03:34:51.456Z,12.52
2022-10-22T03:37:18.729Z,12.54
2022-10-22T03:39:46.044Z,12.57
2022-10-22T03:42:13.539Z,12.59
2022-10-22T03:44:41.149Z,12.63
2022-10-22T03:47:08.337Z,12.65
2022-10-22T03:49:35.922Z,12.62
2022-10-22T03:52:11.859Z,12.63
2022-10-22T03:54:40.049Z,12.63
2022-10-22T03:57:07.242Z,12.65
2022-10-22T03:59:42.720Z,12.66
2022-10-22T04:02:11.024Z,12.67
2022-10-22T04:04:39.594Z,12.68
2022-10-22T04:07:07.307Z,12.66
2022-10-22T04:09:35.086Z,12.66
2022-10-22T04:12:02.314Z,12.68
2022-10-22T04:14:29.422Z,12.72
2022-10-22T04:16:56.568Z,12.74
2022-10-22T04:19:23.752Z,12.71
2022-10-22T04:21:50.875Z,12.69
2022-10-22T04:24:18.147Z,12.69
2022-10-22T04:26:45.301Z,12.68
2022-10-22T04:29:15.959Z,12.66
2022-10-22T04:31:43.684Z,12.67
2022-10-22T04:34:10.841Z,12.68
2022-10-22T04:36:38.074Z,12.67
2022-10-22T04:39:06.099Z,12.66
2022-10-22T04:41:36.137Z,12.67
2022-10-22T04:44:03.916Z,12.68
2022-10-22T04:46:33.511Z,12.69
2022-10-22T04:49:01.071Z,12.68
2022-10-22T04:51:28.296Z,12.66
2022-10-22T04:53:55.418Z,12.67
2022-10-22T04:56:25.574Z,12.67
2022-10-22T04:59:15.183Z,12.70
2022-10-22T05:01:44.097Z,12.73
2022-10-22T05:04:13.170Z,12.71
2022-10-22T05:06:40.461Z,12.74
2022-10-22T05:09:13.975Z,12.76
2022-10-22T05:11:45.325Z,12.81
2022-10-22T05:14:12.582Z,12.87
2022-10-22T05:16:40.032Z,12.94
2022-10-22T05:19:08.068Z,13.01
2022-10-22T05:21:37.615Z,13.06
2022-10-22T05:24:05.100Z,13.15
2022-10-22T05:26:32.244Z,13.21
2022-10-22T05:28:59.424Z,13.25
2022-10-22T05:31:28.773Z,13.31
2022-10-22T05:33:55.937Z,13.32
2022-10-22T05:36:23.385Z,13.39
2022-10-22T05:38:50.638Z,13.42
2022-10-22T05:41:25.339Z,13.42
2022-10-22T05:43:55.775Z,13.42
2022-10-22T05:46:24.538Z,13.44
2022-10-22T05:48:56.698Z,13.46
2022-10-22T05:51:24.783Z,13.42
2022-10-22T05:53:55.818Z,13.46
2022-10-22T05:56:23.344Z,13.50
2022-10-22T05:58:50.741Z,13.53
2022-10-22T06:01:29.055Z,13.53
2022-10-22T06:04:00.725Z,13.56
2022-10-22T06:06:34.060Z,13.59
2022-10-22T06:09:16.478Z,13.65
2022-10-22T06:11:43.661Z,13.67
2022-10-22T06:14:11.066Z,13.69
2022-10-22T06:16:38.537Z,13.70
2022-10-22T06:19:05.702Z,13.72
2022-10-22T06:21:33.130Z,13.72
2022-10-22T06:24:01.028Z,13.72
2022-10-22T06:26:28.379Z,13.69
2022-10-22T06:28:56.177Z,13.63
2022-10-22T06:31:24.108Z,13.61
2022-10-22T06:33:51.240Z,13.59
2022-10-22T06:36:20.559Z,13.58
2022-10-22T06:38:47.877Z,13.56
2022-10-22T06:41:16.377Z,13.53
2022-10-22T06:43:47.709Z,13.46
2022-10-22T06:46:19.837Z,13.41
2022-10-22T06:48:55.302Z,13.37
2022-10-22T06:51:22.587Z,13.31
2022-10-22T06:53:49.939Z,13.24
2022-10-22T06:56:19.140Z,13.17
2022-10-22T06:58:53.593Z,13.09
2022-10-22T07:01:23.372Z,13.02
2022-10-22T07:03:51.864Z,12.97
2022-10-22T07:06:20.164Z,12.93
2022-10-22T07:08:47.476Z,12.89
2022-10-22T07:11:19.655Z,12.87
2022-10-22T07:13:47.035Z,12.87
2022-10-22T07:16:14.722Z,12.87
2022-10-22T07:18:42.249Z,12.87
2022-10-22T07:21:11.307Z,12.84
2022-10-22T07:23:38.595Z,12.79
2022-10-22T07:26:07.492Z,12.77
2022-10-22T07:28:39.829Z,12.75
2022-10-22T07:31:08.879Z,12.75
2022-10-22T07:33:36.241Z,12.77
2022-10-22T07:36:06.707Z,12.75
2022-10-22T07:38:35.027Z,12.75
2022-10-22T07:41:02.787Z,12.74
2022-10-22T07:43:29.823Z,12.70
2022-10-22T07:45:56.874Z,12.69
2022-10-22T07:48:24.089Z,12.66
2022-10-22T07:50:51.497Z,12.63
2022-10-22T07:53:18.898Z,12.60
2022-10-22T07:55:49.008Z,12.57
2022-10-22T07:58:17.382Z,12.53
2022-10-22T08:00:45.081Z,12.51
2022-10-22T08:03:13.179Z,12.46
2022-10-22T08:05:40.967Z,12.42
2022-10-22T08:08:08.058Z,12.40
2022-10-22T08:10:35.345Z,12.37
2022-10-22T08:13:02.649Z,12.35
2022-10-22T08:15:30.223Z,12.32
2022-10-22T08:17:57.304Z,12.28
2022-10-22T08:20:24.693Z,12.28
2022-10-22T08:22:51.976Z,12.30
2022-10-22T08:25:19.143Z,12.31
2022-10-22T08:27:46.248Z,12.32
2022-10-22T08:30:13.856Z,12.32
2022-10-22T08:32:41.788Z,12.34
2022-10-22T08:35:09.844Z,12.39
2022-10-22T08:37:37.519Z,12.41
2022-10-22T08:40:08.855Z,12.43
2022-10-22T08:42:45.148Z,12.46
2022-10-22T08:45:15.809Z,12.50
2022-10-22T08:48:01.398Z,12.54
2022-10-22T08:50:46.976Z,12.58
2022-10-22T08:53:56.734Z,12.64
2022-10-22T08:56:24.408Z,12.67
2022-10-22T08:59:19.092Z,12.67
2022-10-22T09:01:50.099Z,12.74
2022-10-22T09:04:44.419Z,12.84
2022-10-22T09:07:11.477Z,12.92
2022-10-22T09:09:42.754Z,13.00
2022-10-22T09:12:19.343Z,13.03
2022-10-22T09:14:47.514Z,13.09
2022-10-22T09:17:44.516Z,13.14
2022-10-22T09:20:16.945Z,13.17
2022-10-22T09:23:06.295Z,13.19
2022-10-22T09:25:36.015Z,13.25
2022-10-22T09:28:03.790Z,13.29
2022-10-22T09:30:35.155Z,13.32
2022-10-22T09:33:07.098Z,13.36
2022-10-22T09:35:44.082Z,13.35
2022-10-22T09:38:13.703Z,13.39
2022-10-22T09:40:52.181Z,13.46
2022-10-22T09:43:19.825Z,13.46
2022-10-22T09:45:48.193Z,13.47
2022-10-22T09:48:15.139Z,13.46
2022-10-22T09:50:48.172Z,13.44
2022-10-22T09:53:23.672Z,13.45
2022-10-22T09:58:28.785Z,13.52
2022-10-22T10:00:57.887Z,13.56
2022-10-22T10:03:28.643Z,13.60
2022-10-22T10:06:02.988Z,13.66
2022-10-22T10:08:33.490Z,13.73
2022-10-22T10:11:25.527Z,13.81
2022-10-22T10:14:07.466Z,13.89
2022-10-22T10:16:55.981Z,14.00
2022-10-22T10:19:26.924Z,14.21
2022-10-22T10:22:18.795Z,14.42
2022-10-22T10:24:51.075Z,14.57
2022-10-22T10:27:54.816Z,14.66
2022-10-22T10:30:25.927Z,14.73
2022-10-22T10:33:16.299Z,14.77
2022-10-22T10:35:49.000Z,14.81
2022-10-22T10:38:34.942Z,14.79
2022-10-22T10:41:23.815Z,14.77
2022-10-22T10:43:58.421Z,14.79
2022-10-22T10:46:41.216Z,14.77
2022-10-22T10:49:17.470Z,14.76
2022-10-22T10:52:17.398Z,14.79
2022-10-22T10:55:03.930Z,14.83
2022-10-22T10:57:52.786Z,14.97
2022-10-22T11:00:21.212Z,15.12
2022-10-22T11:03:10.315Z,15.31
2022-10-22T11:06:00.353Z,15.48
2022-10-22T11:08:32.696Z,15.56
2022-10-22T11:11:11.540Z,15.55
2022-10-22T11:13:42.840Z,15.54
2022-10-22T11:16:31.163Z,15.61
2022-10-22T11:19:46.054Z,15.73
2022-10-22T11:22:27.143Z,15.90
2022-10-22T11:25:05.343Z,15.95
2022-10-22T11:27:42.954Z,15.96
2022-10-22T11:30:19.698Z,16.01
2022-10-22T11:32:52.998Z,16.01
2022-10-22T11:35:25.819Z,16.04
2022-10-22T11:37:55.454Z,16.11
2022-10-22T11:40:33.029Z,16.15
2022-10-22T11:43:08.048Z,16.20
2022-10-22T11:45:37.935Z,16.24
2022-10-22T11:48:11.230Z,16.34
2022-10-22T11:50:41.019Z,16.45
2022-10-22T11:53:13.807Z,16.56
2022-10-22T11:55:48.594Z,16.65
2022-10-22T11:58:32.320Z,16.80
2022-10-22T12:01:02.131Z,16.91
2022-10-22T12:03:32.200Z,16.98
2022-10-22T12:06:05.042Z,17.03
2022-10-22T12:08:33.159Z,17.00
2022-10-22T12:11:06.493Z,16.94
2022-10-22T12:14:09.786Z,16.87
2022-10-22T12:16:56.556Z,16.86
2022-10-22T12:19:37.550Z,16.92
2022-10-22T12:22:07.633Z,16.99
2022-10-22T12:24:38.527Z,17.06
2022-10-22T12:27:25.857Z,17.06
2022-10-22T12:29:58.125Z,17.10
2022-10-22T12:32:36.332Z,17.11
2022-10-22T12:35:08.617Z,17.15
2022-10-22T12:37:37.168Z,17.23
2022-10-22T12:40:18.756Z,17.29
2022-10-22T12:43:14.418Z,17.31
2022-10-22T12:45:44.023Z,17.29
2022-10-22T12:48:17.663Z,17.20
2022-10-22T12:50:53.454Z,17.09
2022-10-22T12:53:32.870Z,16.99
2022-10-22T12:56:03.020Z,16.93
2022-10-22T12:58:36.655Z,16.91
2022-10-22T13:01:04.364Z,16.91
2022-10-22T13:03:42.376Z,16.90
2022-10-22T13:06:14.048Z,16.86
2022-10-22T13:08:41.443Z,16.84
2022-10-22T13:11:10.973Z,16.89
2022-10-22T13:13:38.023Z,16.97
2022-10-22T13:16:25.671Z,17.05
2022-10-22T13:18:54.107Z,17.15
2022-10-22T13:21:33.487Z,17.15
2022-10-22T13:24:03.058Z,17.10
2022-10-22T13:26:37.427Z,17.06
2022-10-22T13:29:10.705Z,17.05
2022-10-22T13:31:46.529Z,17.06
2022-10-22T13:34:17.416Z,17.10
2022-10-22T13:36:44.619Z,17.10
2022-10-22T13:39:20.888Z,17.16
2022-10-22T13:41:50.503Z,17.18
2022-10-22T13:44:18.530Z,17.20
2022-10-22T13:46:47.226Z,17.29
2022-10-22T13:49:16.876Z,17.32
2022-10-22T13:51:44.216Z,17.34
2022-10-22T13:54:19.925Z,17.33
2022-10-22T13:56:47.001Z,17.32
2022-10-22T13:59:15.409Z,17.30
2022-10-22T14:01:45.043Z,17.27
2022-10-22T14:04:13.695Z,17.25
2022-10-22T14:06:40.777Z,17.22
2022-10-22T14:09:11.930Z,17.21
2022-10-22T14:11:39.106Z,17.20
2022-10-22T14:14:08.987Z,17.23
2022-10-22T14:16:37.756Z,17.25
2022-10-22T14:19:07.570Z,17.23
2022-10-22T14:21:36.953Z,17.17
2022-10-22T14:24:06.118Z,17.10
2022-10-22T14:26:35.540Z,17.00
2022-10-22T14:29:11.698Z,16.87
2022-10-22T14:34:14.287Z,16.65
2022-10-22T14:36:43.684Z,16.58
2022-10-22T14:39:11.366Z,16.55
2022-10-22T14:41:38.474Z,16.56
2022-10-22T14:44:05.772Z,16.54
2022-10-22T14:46:32.933Z,16.53
2022-10-22T14:48:59.997Z,16.51
2022-10-22T14:51:27.026Z,16.49
2022-10-22T14:53:54.054Z,16.42
2022-10-22T14:56:21.431Z,16.36
2022-10-22T14:58:49.046Z,16.29
2022-10-22T15:01:16.440Z,16.25
2022-10-22T15:03:43.640Z,16.20
2022-10-22T15:06:10.777Z,16.15
2022-10-22T15:08:38.082Z,16.11
2022-10-22T15:11:07.740Z,16.05
2022-10-22T15:13:35.450Z,16.02
2022-10-22T15:16:06.348Z,15.96
2022-10-22T15:18:33.438Z,15.92
2022-10-22T15:21:02.896Z,15.87
2022-10-22T15:23:30.398Z,15.80
2022-10-22T15:25:57.593Z,15.73
2022-10-22T15:28:25.056Z,15.63
2022-10-22T15:31:00.270Z,15.55
2022-10-22T15:33:28.860Z,15.46
2022-10-22T15:35:56.472Z,15.35
2022-10-22T15:38:32.615Z,15.29
2022-10-22T15:41:05.526Z,15.24
2022-10-22T15:43:33.961Z,15.21
2022-10-22T15:46:11.694Z,15.17
2022-10-22T15:48:38.836Z,15.12
2022-10-22T15:51:13.663Z,15.06
2022-10-22T15:53:40.806Z,14.99
2022-10-22T15:56:08.811Z,14.94
2022-10-22T15:58:35.882Z,14.88
2022-10-22T16:01:11.891Z,14.82
2022-10-22T16:03:39.268Z,14.81
2022-10-22T16:06:07.041Z,14.77
2022-10-22T16:08:34.223Z,14.70
2022-10-22T16:11:01.416Z,14.65
2022-10-22T16:13:28.665Z,14.61
2022-10-22T16:15:55.731Z,14.56
2022-10-22T16:18:23.636Z,14.51
2022-10-22T16:20:50.753Z,14.49
2022-10-22T16:23:18.992Z,14.43
2022-10-22T16:25:46.742Z,14.43
2022-10-22T16:28:14.334Z,14.39
2022-10-22T16:30:41.752Z,14.40
2022-10-22T16:33:10.396Z,14.39
2022-10-22T16:35:41.736Z,14.37
2022-10-22T16:38:10.587Z,14.33
2022-10-22T16:40:38.014Z,14.31
2022-10-22T16:43:05.714Z,14.26
2022-10-22T16:45:32.840Z,14.20
2022-10-22T16:47:59.939Z,14.16
2022-10-22T16:50:27.043Z,14.11
2022-10-22T16:52:54.212Z,14.05
2022-10-22T16:55:21.292Z,14.00
2022-10-22T16:57:52.265Z,13.94
2022-10-22T17:00:20.249Z,13.89
2022-10-22T17:02:53.788Z,13.86
2022-10-22T17:05:21.470Z,13.79
2022-10-22T17:07:48.667Z,13.75
2022-10-22T17:10:17.137Z,13.69
2022-10-22T17:12:44.530Z,13.61
2022-10-22T17:15:12.141Z,13.60
2022-10-22T17:17:39.462Z,13.55
2022-10-22T17:20:07.009Z,13.52
2022-10-22T17:22:34.125Z,13.48
2022-10-22T17:25:06.916Z,13.44
2022-10-22T17:27:33.995Z,13.42
2022-10-22T17:30:01.048Z,13.41
2022-10-22T17:32:29.895Z,13.33
2022-10-22T17:34:57.007Z,13.28
2022-10-22T17:37:24.086Z,13.21
2022-10-22T17:39:51.307Z,13.18
2022-10-22T17:42:18.420Z,13.15
2022-10-22T17:44:45.491Z,13.15
2022-10-22T17:47:12.578Z,13.14
2022-10-22T17:49:39.785Z,13.16
2022-10-22T17:52:07.051Z,13.15
2022-10-22T17:54:34.218Z,13.14
2022-10-22T17:57:01.276Z,13.15
2022-10-22T17:59:28.525Z,13.10
2022-10-22T18:01:59.414Z,13.05
2022-10-22T18:04:27.591Z,13.04
2022-10-22T18:06:54.920Z,13.02
2022-10-22T18:09:22.132Z,12.99
2022-10-22T18:11:51.716Z,13.02
2022-10-22T18:14:20.099Z,13.06
2022-10-22T18:16:47.650Z,13.13
2022-10-22T18:19:17.065Z,13.15
2022-10-22T18:21:44.282Z,13.21
2022-10-22T18:24:13.262Z,13.19
2022-10-22T18:26:40.295Z,13.21
2022-10-22T18:29:08.035Z,13.25
2022-10-22T18:31:35.697Z,13.27
2022-10-22T18:34:02.885Z,13.32
2022-10-22T18:36:29.992Z,13.32
2022-10-22T18:38:58.987Z,13.32
2022-10-22T18:41:27.621Z,13.33
2022-10-22T18:44:02.664Z,13.35
2022-10-22T18:46:30.832Z,13.39
2022-10-22T18:48:58.810Z,13.43
2022-10-22T18:51:30.070Z,13.44
2022-10-22T18:54:11.359Z,13.44
2022-10-22T18:56:44.320Z,13.42
2022-10-22T18:59:22.866Z,13.49
2022-10-22T19:01:51.490Z,13.50
2022-10-22T19:04:18.663Z,13.54
2022-10-22T19:06:46.121Z,13.55
2022-10-22T19:09:16.978Z,13.60
2022-10-22T19:11:44.928Z,13.63
2022-10-22T19:14:13.078Z,13.66
2022-10-22T19:16:40.246Z,13.65
2022-10-22T19:19:08.030Z,13.65
2022-10-22T19:21:35.500Z,13.70
2022-10-22T19:24:02.605Z,13.71
2022-10-22T19:26:30.361Z,13.75
2022-10-22T19:28:58.458Z,13.77
2022-10-22T19:31:26.829Z,13.76
2022-10-22T19:33:55.299Z,13.78
2022-10-22T19:36:27.923Z,13.79
2022-10-22T19:38:55.822Z,13.84
2022-10-22T19:41:25.116Z,13.83
2022-10-22T19:43:53.394Z,13.82
2022-10-22T19:46:21.868Z,13.80
2022-10-22T19:48:51.229Z,13.83
2022-10-22T19:51:20.616Z,13.82
2022-10-22T19:53:48.323Z,13.84
2022-10-22T19:56:18.444Z,13.88
2022-10-22T19:58:45.839Z,13.90
2022-10-22T20:01:15.532Z,13.90
2022-10-22T20:03:42.682Z,13.92
2022-10-22T20:06:11.532Z,13.89
2022-10-22T20:08:39.258Z,13.86
2022-10-22T20:11:12.330Z,13.83
2022-10-22T20:16:11.866Z,13.72
2022-10-22T20:18:38.998Z,13.67
2022-10-22T20:21:07.659Z,13.62
2022-10-22T20:23:35.218Z,13.58
2022-10-22T20:26:02.311Z,13.54
2022-10-22T20:28:29.393Z,13.44
2022-10-22T20:30:56.676Z,13.41
2022-10-22T20:33:23.833Z,13.34
2022-10-22T20:36:00.978Z,13.26
2022-10-22T20:38:28.204Z,13.20
2022-10-22T20:41:06.784Z,13.13
2022-10-22T20:43:34.069Z,13.10
2022-10-22T20:46:01.227Z,13.02
2022-10-22T20:48:31.234Z,12.96
2022-10-22T20:50:59.191Z,12.87
2022-10-22T20:53:27.309Z,12.81
2022-10-22T20:55:57.755Z,12.77
2022-10-22T20:58:26.953Z,12.67
2022-10-22T21:00:54.977Z,12.62
2022-10-22T21:03:22.688Z,12.56
2022-10-22T21:05:50.203Z,12.50
2022-10-22T21:08:17.818Z,12.47
2022-10-22T21:10:46.491Z,12.39
2022-10-22T21:13:14.024Z,12.32
2022-10-22T21:15:41.495Z,12.27
2022-10-22T21:18:09.135Z,12.20
2022-10-22T21:20:36.743Z,12.14
2022-10-22T21:23:04.034Z,12.03
2022-10-22T21:25:31.555Z,11.95
2022-10-22T21:27:58.637Z,11.91
2022-10-22T21:30:25.753Z,11.84
2022-10-22T21:32:56.015Z,11.74
2022-10-22T21:35:23.470Z,11.70
2022-10-22T21:37:50.738Z,11.68
2022-10-22T21:40:17.906Z,11.64
2022-10-22T21:42:44.978Z,11.62
2022-10-22T21:45:13.607Z,11.57
2022-10-22T21:47:42.096Z,11.49
2022-10-22T21:50:09.516Z,11.42
2022-10-22T21:52:36.598Z,11.42
2022-10-22T21:55:03.902Z,11.39
2022-10-22T21:57:31.076Z,11.37
2022-10-22T21:59:58.170Z,11.34
2022-10-22T22:02:27.232Z,11.34
2022-10-22T22:04:54.886Z,11.34
2022-10-22T22:07:22.133Z,11.26
2022-10-22T22:09:52.303Z,11.23
2022-10-22T22:12:20.502Z,11.18
2022-10-22T22:14:47.665Z,11.17
2022-10-22T22:17:16.440Z,11.16
2022-10-22T22:19:43.562Z,11.15
2022-10-22T22:22:10.797Z,11.15
2022-10-22T22:24:39.681Z,11.13
2022-10-22T22:27:06.934Z,11.08
2022-10-22T22:29:34.443Z,11.03
2022-10-22T22:32:01.544Z,10.99
2022-10-22T22:34:28.656Z,10.95
2022-10-22T22:36:55.776Z,10.92
2022-10-22T22:39:24.001Z,10.86
2022-10-22T22:41:51.253Z,10.89
2022-10-22T22:44:18.576Z,10.87
2022-10-22T22:46:45.638Z,10.86
2022-10-22T22:49:13.577Z,10.86
2022-10-22T22:51:40.743Z,10.85
2022-10-22T22:54:08.140Z,10.83
2022-10-22T22:56:35.496Z,10.77
2022-10-22T22:59:03.763Z,10.76
2022-10-22T23:01:38.967Z,10.78
2022-10-22T23:04:19.018Z,10.78
2022-10-22T23:06:46.394Z,10.82
2022-10-22T23:09:15.272Z,10.86
2022-10-22T23:11:43.783Z,10.93
2022-10-22T23:14:14.078Z,10.95
2022-10-22T23:16:45.352Z,11.00
2022-10-22T23:19:14.539Z,11.04
2022-10-22T23:21:45.540Z,11.06
2022-10-22T23:24:15.341Z,11.08
2022-10-22T23:26:45.100Z,11.10
2022-10-22T23:29:21.161Z,11.11
2022-10-22T23:31:48.724Z,11.09
2022-10-22T23:34:21.672Z,11.10
2022-10-22T23:36:49.829Z,11.07
2022-10-22T23:39:19.633Z,11.00
2022-10-22T23:41:46.727Z,10.94
2022-10-22T23:44:13.911Z,10.92
2022-10-22T23:46:41.267Z,10.93
2022-10-22T23:49:09.728Z,10.89
2022-10-22T23:51:37.626Z,10.89
2022-10-22T23:54:11.092Z,10.91
2022-10-22T23:56:38.437Z,10.91
2022-10-22T23:59:05.780Z,10.90
